| time (UTC) | temp C | wind direction | speed KPH | gust KPH | rain 1hr cm | rain 24hr cm | rain mn cm | humidity % | barometer mb |
| 20260903150704 | 20 | 188 | 3.2 | 9.7 | 0.00 | 0.51 | 0.20 | 90 | 1010.3 |
| 20260903150204 | 20 | 171 | 3.2 | 12.9 | 0.00 | 0.51 | 0.20 | 90 | 1010.3 |
| 20260903144704 | 20 | 164 | 3.2 | 12.9 | 0.00 | 0.51 | 0.20 | 90 | 1010.3 |
| 20260903144204 | 20 | 197 | 3.2 | 11.3 | 0.00 | 0.51 | 0.20 | 91 | 1010.2 |
| 20260903142704 | 19 | 187 | 3.2 | 8.0 | 0.00 | 0.51 | 0.20 | 91 | 1010.3 |
| 20260903142204 | 19 | 215 | 4.8 | 12.9 | 0.00 | 0.51 | 0.20 | 91 | 1010.3 |
| 20260903140704 | 19 | 211 | 4.8 | 16.1 | 0.00 | 0.51 | 0.20 | 92 | 1010.2 |
| 20260903140204 | 19 | 171 | 3.2 | 14.5 | 0.00 | 0.51 | 0.20 | 92 | 1010.3 |
| 20260903134204 | 18 | 210 | 1.6 | 11.3 | 0.00 | 0.51 | 0.20 | 93 | 1010.2 |
| 20260903132704 | 18 | 175 | 3.2 | 11.3 | 0.00 | 0.51 | 0.20 | 93 | 1010.1 |
| 20260903132204 | 18 | 147 | 3.2 | 9.7 | 0.00 | 0.51 | 0.20 | 93 | 1010.1 |
| 20260903124204 | 17 | 167 | 3.2 | 11.3 | 0.00 | 0.51 | 0.20 | 95 | 1010.3 |
| 20260903122704 | 17 | 160 | 4.8 | 11.3 | 0.00 | 0.51 | 0.20 | 95 | 1010.3 |
| 20260903122204 | 17 | 296 | 1.6 | 8.0 | 0.00 | 0.51 | 0.20 | 95 | 1010.3 |
| 20260903120704 | 17 | 185 | 3.2 | 4.8 | 0.00 | 0.51 | 0.20 | 95 | 1010.3 |
| 20260903120204 | 17 | 171 | 1.6 | 12.9 | 0.00 | 0.51 | 0.20 | 95 | 1010.2 |
| 20260903114703 | 17 | 183 | 4.8 | 9.7 | 0.00 | 0.51 | 0.20 | 95 | 1010.3 |
| 20260903114204 | 17 | 177 | 3.2 | 11.3 | 0.00 | 0.51 | 0.20 | 95 | 1010.2 |
| 20260903112704 | 17 | 184 | 4.8 | 9.7 | 0.00 | 0.51 | 0.20 | 95 | 1010.2 |
| 20260903112204 | 17 | 173 | 4.8 | 12.9 | 0.00 | 0.51 | 0.20 | 95 | 1010.2 |
| 20260903110704 | 17 | 152 | 6.4 | 11.3 | 0.03 | 0.51 | 0.20 | 95 | 1010.1 |
| 20260903110204 | 16 | 154 | 4.8 | 11.3 | 0.03 | 0.51 | 0.20 | 95 | 1010.1 |
| 20260903104704 | 16 | 166 | 4.8 | 11.3 | 0.03 | 0.51 | 0.20 | 95 | 1009.9 |
| 20260903104204 | 16 | 160 | 3.2 | 11.3 | 0.03 | 0.51 | 0.20 | 95 | 1010.0 |
| 20260903102704 | 16 | 169 | 4.8 | 12.9 | 0.03 | 0.51 | 0.20 | 95 | 1009.9 |
| 20260903102204 | 16 | 166 | 4.8 | 11.3 | 0.03 | 0.51 | 0.20 | 95 | 1009.9 |
| 20260903100704 | 16 | 149 | 3.2 | 8.0 | 0.00 | 0.51 | 0.18 | 95 | 1009.8 |
| 20260903100203 | 16 | 172 | 4.8 | 8.0 | 0.00 | 0.51 | 0.18 | 95 | 1009.7 |
| 20260903094703 | 16 | 154 | 3.2 | 8.0 | 0.00 | 0.51 | 0.18 | 95 | 1009.6 |
| 20260903094204 | 16 | 148 | 3.2 | 8.0 | 0.00 | 0.51 | 0.18 | 95 | 1009.6 |
| 20260903092703 | 16 | 167 | 3.2 | 12.9 | 0.00 | 0.51 | 0.18 | 95 | 1009.4 |
| 20260903090704 | 16 | 132 | 3.2 | 8.0 | 0.05 | 0.51 | 0.18 | 95 | 1009.6 |
| 20260903090204 | 16 | 132 | 4.8 | 9.7 | 0.05 | 0.51 | 0.18 | 95 | 1009.6 |
| 20260903084704 | 16 | 155 | 3.2 | 4.8 | 0.05 | 0.51 | 0.18 | 95 | 1009.8 |
| 20260903082704 | 16 | 104 | 3.2 | 8.0 | 0.05 | 0.51 | 0.18 | 95 | 1009.9 |
| 20260903082204 | 16 | 163 | 3.2 | 9.7 | 0.05 | 0.48 | 0.15 | 94 | 1009.9 |
| 20260903080704 | 16 | 122 | 3.2 | 8.0 | 0.00 | 0.43 | 0.13 | 94 | 1009.7 |
| 20260903080204 | 16 | 159 | 3.2 | 9.7 | 0.00 | 0.43 | 0.13 | 94 | 1009.8 |
| 20260903074205 | 16 | 167 | 3.2 | 12.9 | 0.00 | 0.43 | 0.13 | 94 | 1009.8 |
| 20260903072205 | 16 | 165 | 8.0 | 14.5 | 0.00 | 0.43 | 0.13 | 94 | 1009.9 |
| 20260903070705 | 16 | 113 | 3.2 | 11.3 | 0.00 | 0.43 | 0.13 | 94 | 1009.9 |
| 20260903070205 | 16 | 146 | 4.8 | 11.3 | 0.00 | 0.43 | 0.13 | 94 | 1009.9 |
| 20260903064705 | 16 | 101 | 4.8 | 11.3 | 0.00 | 0.43 | 0.13 | 94 | 1010.0 |
| 20260903064205 | 16 | 169 | 6.4 | 14.5 | 0.00 | 0.43 | 0.13 | 94 | 1009.9 |
| 20260903062705 | 16 | 126 | 8.0 | 12.9 | 0.00 | 0.43 | 0.13 | 94 | 1009.7 |
| 20260903062205 | 16 | 142 | 4.8 | 16.1 | 0.00 | 0.43 | 0.13 | 94 | 1009.7 |
| 20260903060706 | 16 | 154 | 6.4 | 16.1 | 0.03 | 0.43 | 0.13 | 94 | 1009.7 |
| 20260903054705 | 16 | 122 | 8.0 | 14.5 | 0.08 | 0.43 | 0.13 | 93 | 1010.1 |
| 20260903054205 | 16 | 115 | 8.0 | 16.1 | 0.08 | 0.43 | 0.13 | 93 | 1010.2 |
| 20260903052705 | 16 | 122 | 6.4 | 14.5 | 0.10 | 0.43 | 0.13 | 93 | 1010.3 |
| 20260903052205 | 16 | 103 | 8.0 | 19.3 | 0.10 | 0.43 | 0.13 | 94 | 1010.4 |
| 20260903050705 | 16 | 108 | 8.0 | 20.9 | 0.08 | 0.43 | 0.10 | 93 | 1010.7 |
| 20260903050205 | 16 | 108 | 8.0 | 19.3 | 0.08 | 0.41 | 0.08 | 93 | 1010.9 |
| 20260903044705 | 16 | 113 | 4.8 | 12.9 | 0.05 | 0.36 | 0.05 | 93 | 1011.3 |
| 20260903044205 | 16 | 133 | 8.0 | 16.1 | 0.05 | 0.36 | 0.05 | 93 | 1011.3 |
| 20260903042705 | 16 | 122 | 8.0 | 16.1 | 0.05 | 0.33 | 0.03 | 93 | 1011.4 |
| 20260903042205 | 16 | 168 | 4.8 | 12.9 | 0.08 | 0.33 | 0.03 | 93 | 1011.5 |
| 20260903040705 | 16 | 161 | 8.0 | 12.9 | 0.13 | 0.33 | 0.03 | 93 | 1011.6 |
| 20260903034705 | 16 | 112 | 8.0 | 14.5 | 0.15 | 0.33 | 0.33 | 93 | 1011.6 |
| 20260903034205 | 16 | 117 | 4.8 | 22.5 | 0.18 | 0.33 | 0.33 | 93 | 1011.6 |
| 20260903032705 | 16 | 111 | 8.0 | 19.3 | 0.15 | 0.28 | 0.28 | 93 | 1011.9 |
| 20260903032205 | 16 | 156 | 8.0 | 20.9 | 0.15 | 0.25 | 0.25 | 93 | 1012.0 |
| 20260903030705 | 17 | 173 | 9.7 | 19.3 | 0.13 | 0.23 | 0.23 | 92 | 1012.3 |
| 20260903030204 | 17 | 103 | 4.8 | 20.9 | 0.13 | 0.20 | 0.20 | 92 | 1012.3 |
| 20260903024705 | 17 | 137 | 6.4 | 14.5 | 0.13 | 0.15 | 0.15 | 92 | 1012.4 |
| 20260903024205 | 17 | 135 | 8.0 | 19.3 | 0.10 | 0.15 | 0.15 | 91 | 1012.4 |
| 20260903022705 | 17 | 133 | 6.4 | 19.3 | 0.10 | 0.13 | 0.13 | 91 | 1012.4 |
| 20260903022205 | 17 | 136 | 6.4 | 20.9 | 0.10 | 0.13 | 0.13 | 90 | 1012.6 |
| 20260903020705 | 17 | 138 | 8.0 | 19.3 | 0.08 | 0.10 | 0.10 | 89 | 1012.8 |
| 20260903014705 | 18 | 130 | 9.7 | 16.1 | 0.03 | 0.05 | 0.05 | 86 | 1012.8 |
| 20260903012205 | 18 | 114 | 6.4 | 14.5 | 0.03 | 0.03 | 0.03 | 84 | 1012.9 |
| 20260903010705 | 18 | 147 | 6.4 | 12.9 | 0.03 | 0.03 | 0.03 | 84 | 1013.0 |
| 20260903010205 | 18 | 147 | 4.8 | 14.5 | 0.03 | 0.03 | 0.03 | 84 | 1012.9 |
| 20260903004704 | 18 | 139 | 4.8 | 16.1 | 0.03 | 0.03 | 0.03 | 83 | 1012.9 |
| 20260903004207 | 19 | 155 | 4.8 | 19.3 | 0.03 | 0.03 | 0.03 | 82 | 1012.9 |
| 20260903002705 | 20 | 163 | 6.4 | 14.5 | 0.00 | 0.00 | 0.00 | 80 | 1012.9 |
| 20260903000704 | 20 | 163 | 6.4 | 12.9 | 0.00 | 0.00 | 0.00 | 78 | 1012.5 |
| 20260903000204 | 20 | 140 | 4.8 | 25.7 | 0.00 | 0.00 | 0.00 | 78 | 1012.4 |
| 20260902234704 | 20 | 120 | 6.4 | 14.5 | 0.00 | 0.00 | 0.00 | 75 | 1012.3 |
| 20260902234205 | 20 | 144 | 8.0 | 19.3 | 0.00 | 0.00 | 0.00 | 75 | 1012.3 |
| 20260902232704 | 20 | 125 | 8.0 | 22.5 | 0.00 | 0.00 | 0.00 | 74 | 1012.5 |
| 20260902232204 | 20 | 141 | 4.8 | 16.1 | 0.00 | 0.00 | 0.00 | 74 | 1012.5 |
| 20260902230705 | 21 | 91 | 4.8 | 14.5 | 0.00 | 0.00 | 0.00 | 74 | 1012.7 |
| 20260902230205 | 21 | 112 | 8.0 | 27.4 | 0.00 | 0.00 | 0.00 | 73 | 1012.8 |
| 20260902224705 | 21 | 115 | 4.8 | 14.5 | 0.00 | 0.00 | 0.00 | 73 | 1012.9 |
| 20260902224205 | 21 | 132 | 4.8 | 14.5 | 0.00 | 0.00 | 0.00 | 73 | 1013.0 |
| 20260902222704 | 21 | 100 | 4.8 | 12.9 | 0.00 | 0.00 | 0.00 | 72 | 1013.5 |
| 20260902222205 | 21 | 126 | 3.2 | 19.3 | 0.00 | 0.00 | 0.00 | 72 | 1013.5 |
| 20260902220704 | 21 | 105 | 6.4 | 14.5 | 0.00 | 0.00 | 0.00 | 71 | 1013.6 |
| 20260902220205 | 21 | 107 | 4.8 | 12.9 | 0.00 | 0.00 | 0.00 | 72 | 1013.8 |
| 20260902214705 | 22 | 129 | 3.2 | 11.3 | 0.00 | 0.00 | 0.00 | 71 | 1014.1 |
| 20260902214205 | 22 | 119 | 6.4 | 14.5 | 0.00 | 0.00 | 0.00 | 71 | 1014.1 |
| 20260902212705 | 22 | 145 | 4.8 | 11.3 | 0.00 | 0.00 | 0.00 | 71 | 1014.3 |
| 20260902212204 | 22 | 145 | 6.4 | 11.3 | 0.00 | 0.00 | 0.00 | 71 | 1014.3 |
| 20260902210705 | 22 | 117 | 3.2 | 8.0 | 0.00 | 0.00 | 0.00 | 70 | 1014.5 |
| 20260902210204 | 22 | 108 | 4.8 | 12.9 | 0.00 | 0.00 | 0.00 | 70 | 1014.5 |
| 20260902204704 | 22 | 130 | 8.0 | 14.5 | 0.00 | 0.00 | 0.00 | 69 | 1014.5 |
| 20260902204204 | 22 | 139 | 3.2 | 16.1 | 0.00 | 0.00 | 0.00 | 70 | 1014.4 |
| 20260902202705 | 22 | 124 | 8.0 | 14.5 | 0.00 | 0.00 | 0.00 | 69 | 1014.3 |
| 20260902202205 | 22 | 107 | 6.4 | 20.9 | 0.00 | 0.00 | 0.00 | 69 | 1014.3 |
| 20260902200705 | 23 | 109 | 6.4 | 29.0 | 0.00 | 0.00 | 0.00 | 69 | 1014.9 |
| 20260902200204 | 23 | 132 | 9.7 | 27.4 | 0.00 | 0.00 | 0.00 | 68 | 1015.0 |
| 20260902194705 | 23 | 124 | 8.0 | 20.9 | 0.00 | 0.00 | 0.00 | 67 | 1015.3 |
| 20260902194204 | 23 | 156 | 8.0 | 32.2 | 0.00 | 0.00 | 0.00 | 68 | 1015.3 |
| 20260902192704 | 23 | 124 | 9.7 | 19.3 | 0.00 | 0.00 | 0.00 | 68 | 1015.0 |
| 20260902190704 | 23 | 98 | 4.8 | 11.3 | 0.00 | 0.00 | 0.00 | 70 | 1015.6 |
| 20260902190204 | 23 | 128 | 8.0 | 19.3 | 0.00 | 0.00 | 0.00 | 69 | 1015.7 |
| 20260902184704 | 22 | 115 | 8.0 | 16.1 | 0.00 | 0.00 | 0.00 | 70 | 1015.8 |
| 20260902184205 | 22 | 120 | 8.0 | 19.3 | 0.00 | 0.00 | 0.00 | 70 | 1015.9 |
| 20260902182705 | 23 | 132 | 8.0 | 16.1 | 0.00 | 0.00 | 0.00 | 70 | 1016.2 |
| 20260902182206 | 23 | 125 | 4.8 | 14.5 | 0.00 | 0.00 | 0.00 | 70 | 1016.3 |
| 20260902180704 | 22 | 101 | 6.4 | 12.9 | 0.00 | 0.00 | 0.00 | 71 | 1016.5 |
| 20260902180204 | 22 | 112 | 8.0 | 19.3 | 0.00 | 0.00 | 0.00 | 70 | 1016.5 |
| 20260902174705 | 22 | 142 | 4.8 | 14.5 | 0.00 | 0.00 | 0.00 | 70 | 1016.7 |
| 20260902174205 | 22 | 116 | 6.4 | 14.5 | 0.00 | 0.00 | 0.00 | 70 | 1016.7 |
| 20260902172704 | 22 | 133 | 4.8 | 14.5 | 0.00 | 0.00 | 0.00 | 71 | 1016.7 |
| 20260902172204 | 22 | 108 | 6.4 | 16.1 | 0.00 | 0.00 | 0.00 | 72 | 1016.6 |
| 20260902170704 | 22 | 163 | 4.8 | 12.9 | 0.00 | 0.00 | 0.00 | 72 | 1017.0 |
| 20260902164704 | 21 | 126 | 4.8 | 11.3 | 0.00 | 0.00 | 0.00 | 74 | 1017.2 |
| 20260902164205 | 21 | 145 | 8.0 | 16.1 | 0.00 | 0.00 | 0.00 | 73 | 1017.3 |
| 20260902162704 | 22 | 171 | 4.8 | 16.1 | 0.00 | 0.00 | 0.00 | 72 | 1017.4 |
| 20260902162204 | 22 | 158 | 8.0 | 19.3 | 0.00 | 0.00 | 0.00 | 72 | 1017.4 |
| 20260902160704 | 21 | 127 | 4.8 | 12.9 | 0.00 | 0.00 | 0.00 | 73 | 1017.5 |
| 20260902160204 | 21 | 105 | 8.0 | 14.5 | 0.00 | 0.00 | 0.00 | 73 | 1017.5 |
| 20260902154704 | 21 | 131 | 4.8 | 12.9 | 0.00 | 0.00 | 0.00 | 72 | 1017.6 |
| 20260902154204 | 22 | 114 | 4.8 | 16.1 | 0.00 | 0.00 | 0.00 | 71 | 1017.6 |
| 20260902152204 | 21 | 134 | 8.0 | 19.3 | 0.00 | 0.00 | 0.00 | 73 | 1017.5 |